createdAt,value
2022-08-25T00:00:08.841Z,15.20
2022-08-25T00:02:35.545Z,15.68
2022-08-25T00:05:04.667Z,16.35
2022-08-25T00:07:31.300Z,16.52
2022-08-25T00:09:57.879Z,15.88
2022-08-25T00:12:24.525Z,15.75
2022-08-25T00:14:51.126Z,15.43
2022-08-25T00:17:17.792Z,15.63
2022-08-25T00:19:44.644Z,15.98
2022-08-25T00:22:11.301Z,16.92
2022-08-25T00:24:37.896Z,16.58
2022-08-25T00:27:05.569Z,16.35
2022-08-25T00:29:32.919Z,16.98
2022-08-25T00:31:59.812Z,16.92
2022-08-25T00:34:34.244Z,16.33
2022-08-25T00:37:01.776Z,16.52
2022-08-25T00:39:28.477Z,16.50
2022-08-25T00:41:57.108Z,16.50
2022-08-25T00:44:26.145Z,16.25
2022-08-25T00:46:54.724Z,17.00
2022-08-25T00:49:29.094Z,17.75
2022-08-25T00:52:00.427Z,17.52
2022-08-25T00:54:32.973Z,17.92
2022-08-25T00:57:00.855Z,16.90
2022-08-25T00:59:28.221Z,17.67
2022-08-25T01:01:56.068Z,16.52
2022-08-25T01:04:23.780Z,18.00
2022-08-25T01:06:50.689Z,17.73
2022-08-25T01:09:17.969Z,17.67
2022-08-25T01:11:45.508Z,17.38
2022-08-25T01:14:15.015Z,17.02
2022-08-25T01:16:43.776Z,16.70
2022-08-25T01:19:15.251Z,16.67
2022-08-25T01:21:45.115Z,16.40
2022-08-25T01:24:17.019Z,17.65
2022-08-25T01:26:43.729Z,17.45
2022-08-25T01:29:22.409Z,17.25
2022-08-25T01:31:50.883Z,17.40
2022-08-25T01:34:18.849Z,17.45
2022-08-25T01:36:45.623Z,16.85
2022-08-25T01:39:13.543Z,16.80
2022-08-25T01:41:40.096Z,17.60
2022-08-25T01:44:07.552Z,17.02
2022-08-25T01:46:42.790Z,17.17
2022-08-25T01:49:10.642Z,16.83
2022-08-25T01:51:46.695Z,17.00
2022-08-25T01:54:13.566Z,17.38
2022-08-25T01:56:40.263Z,17.13
2022-08-25T01:59:07.012Z,18.08
2022-08-25T02:01:34.538Z,17.77
2022-08-25T02:04:01.441Z,17.30
2022-08-25T02:06:32.327Z,17.45
2022-08-25T02:09:05.442Z,16.85
2022-08-25T02:11:33.766Z,15.95
2022-08-25T02:14:01.049Z,18.48
2022-08-25T02:16:32.860Z,17.55
2022-08-25T02:19:00.285Z,16.77
2022-08-25T02:21:27.166Z,17.80
2022-08-25T02:23:53.824Z,17.17
2022-08-25T02:26:21.086Z,17.20
2022-08-25T02:28:48.094Z,17.92
2022-08-25T02:31:15.781Z,17.83
2022-08-25T02:33:42.427Z,17.38
2022-08-25T02:36:09.181Z,17.13
2022-08-25T02:38:36.184Z,18.23
2022-08-25T02:41:20.240Z,17.52
2022-08-25T02:43:48.883Z,18.67
2022-08-25T02:46:17.137Z,19.02
2022-08-25T02:48:44.562Z,17.98
2022-08-25T02:51:12.289Z,17.25
2022-08-25T02:53:40.491Z,17.73
2022-08-25T02:56:09.669Z,17.70
2022-08-25T02:58:37.544Z,17.03
2022-08-25T03:01:05.326Z,16.45
2022-08-25T03:03:35.205Z,17.83
2022-08-25T03:06:04.391Z,16.97
2022-08-25T03:08:30.979Z,17.77
2022-08-25T03:10:57.597Z,17.73
2022-08-25T03:13:24.229Z,18.37
2022-08-25T03:15:50.882Z,17.88
2022-08-25T03:18:18.371Z,16.90
2022-08-25T03:20:45.799Z,18.40
2022-08-25T03:23:12.677Z,17.25
2022-08-25T03:26:00.648Z,17.93
2022-08-25T03:28:31.280Z,16.93
2022-08-25T03:30:59.129Z,18.27
2022-08-25T03:33:30.190Z,17.75
2022-08-25T03:35:57.436Z,18.07
2022-08-25T03:38:25.362Z,18.03
2022-08-25T03:40:52.719Z,17.67
2022-08-25T03:43:20.041Z,17.70
2022-08-25T03:45:47.867Z,18.30
2022-08-25T03:48:16.345Z,17.47
2022-08-25T03:50:51.942Z,17.70
2022-08-25T03:53:19.945Z,17.77
2022-08-25T03:55:46.937Z,17.30
2022-08-25T03:58:13.765Z,17.67
2022-08-25T04:00:40.887Z,18.55
2022-08-25T04:03:07.656Z,17.70
2022-08-25T04:05:34.250Z,17.90
2022-08-25T04:08:01.997Z,17.80
2022-08-25T04:10:29.186Z,17.30
2022-08-25T04:12:56.167Z,17.42
2022-08-25T04:15:22.912Z,17.80
2022-08-25T04:17:51.834Z,17.03
2022-08-25T04:20:19.091Z,16.73
2022-08-25T04:22:46.002Z,16.88
2022-08-25T04:25:13.141Z,17.30
2022-08-25T04:27:39.990Z,17.60
2022-08-25T04:30:07.273Z,16.63
2022-08-25T04:32:36.107Z,17.17
2022-08-25T04:35:03.395Z,16.27
2022-08-25T04:37:30.025Z,17.67
2022-08-25T04:39:56.627Z,17.05
2022-08-25T04:42:23.291Z,17.08
2022-08-25T04:44:50.121Z,17.08
2022-08-25T04:47:16.815Z,16.75
2022-08-25T04:49:43.447Z,16.58
2022-08-25T04:52:14.278Z,16.17
2022-08-25T04:54:42.181Z,16.23
2022-08-25T04:57:08.845Z,16.73
2022-08-25T04:59:35.555Z,17.23
2022-08-25T05:02:03.208Z,16.30
2022-08-25T05:04:30.476Z,16.85
2022-08-25T05:06:57.553Z,16.65
2022-08-25T05:09:25.350Z,16.27
2022-08-25T05:11:52.596Z,16.65
2022-08-25T05:14:23.174Z,16.73
2022-08-25T05:16:53.599Z,17.00
2022-08-25T05:19:20.163Z,16.83
2022-08-25T05:21:47.154Z,16.73
2022-08-25T05:24:13.827Z,16.70
2022-08-25T05:26:40.608Z,16.67
2022-08-25T05:29:07.621Z,17.00
2022-08-25T05:31:39.559Z,16.65
2022-08-25T05:34:08.911Z,17.17
2022-08-25T05:36:35.559Z,16.77
2022-08-25T05:39:02.239Z,16.38
2022-08-25T05:41:30.614Z,16.33
2022-08-25T05:43:57.690Z,16.13
2022-08-25T05:46:24.600Z,16.92
2022-08-25T05:48:51.468Z,16.35
2022-08-25T05:51:18.634Z,16.85
2022-08-25T05:53:48.668Z,15.80
2022-08-25T05:56:15.786Z,16.35
2022-08-25T05:58:43.473Z,16.95
2022-08-25T06:01:29.792Z,15.65
2022-08-25T06:03:56.553Z,16.23
2022-08-25T06:06:24.439Z,15.80
2022-08-25T06:08:51.800Z,16.10
2022-08-25T06:11:19.322Z,15.95
2022-08-25T06:13:46.488Z,15.80
2022-08-25T06:16:13.219Z,15.50
2022-08-25T06:18:39.851Z,14.18
2022-08-25T06:21:11.238Z,15.88
2022-08-25T06:23:38.470Z,15.30
2022-08-25T06:26:05.283Z,14.98
2022-08-25T06:28:31.882Z,15.30
2022-08-25T06:31:00.286Z,15.20
2022-08-25T06:33:27.229Z,18.77
2022-08-25T06:35:56.052Z,17.15
2022-08-25T06:38:23.434Z,16.17
2022-08-25T06:40:52.094Z,16.30
2022-08-25T06:43:22.073Z,17.92
2022-08-25T06:45:48.822Z,19.08
2022-08-25T06:48:16.127Z,18.52
2022-08-25T06:50:43.215Z,20.00
2022-08-25T06:53:09.846Z,20.42
2022-08-25T06:55:36.885Z,20.55
2022-08-25T06:58:04.925Z,19.92
2022-08-25T07:00:32.970Z,18.13
2022-08-25T07:03:01.147Z,19.42
2022-08-25T07:05:40.913Z,19.17
2022-08-25T07:08:11.903Z,19.20
2022-08-25T07:10:38.973Z,18.25
2022-08-25T07:13:05.558Z,19.58
2022-08-25T07:15:32.207Z,19.42
2022-08-25T07:17:58.843Z,19.02
2022-08-25T07:22:57.988Z,17.98
2022-08-25T07:25:24.689Z,17.77
2022-08-25T07:27:53.897Z,18.45
2022-08-25T07:30:24.026Z,18.00
2022-08-25T07:32:51.349Z,18.45
2022-08-25T07:35:24.607Z,17.48
2022-08-25T07:37:57.136Z,16.40
2022-08-25T07:40:31.911Z,15.77
2022-08-25T07:43:01.539Z,17.35
2022-08-25T07:45:30.673Z,17.50
2022-08-25T07:48:03.402Z,16.70
2022-08-25T07:50:31.343Z,15.52
2022-08-25T07:52:58.747Z,16.02
2022-08-25T07:55:27.037Z,14.02
2022-08-25T07:57:57.155Z,15.20
2022-08-25T08:00:27.717Z,14.93
2022-08-25T08:02:54.933Z,15.43
2022-08-25T08:05:21.655Z,13.93
2022-08-25T08:07:50.590Z,13.15
2022-08-25T08:13:07.240Z,14.70
2022-08-25T08:15:34.971Z,12.32
2022-08-25T08:18:02.104Z,13.20
2022-08-25T08:20:42.845Z,12.88
2022-08-25T08:23:10.682Z,12.60
2022-08-25T08:25:37.334Z,12.30
2022-08-25T08:28:04.098Z,13.10
2022-08-25T08:30:34.413Z,13.00
2022-08-25T08:33:11.139Z,12.98
2022-08-25T08:35:39.769Z,12.30
2022-08-25T08:38:14.552Z,11.77
2022-08-25T08:41:10.425Z,11.70
2022-08-25T08:43:37.412Z,11.05
2022-08-25T08:46:07.590Z,11.25
2022-08-25T08:48:40.790Z,10.40
2022-08-25T08:51:23.140Z,10.35
2022-08-25T08:54:01.265Z,10.95
2022-08-25T08:56:45.331Z,11.00
2022-08-25T08:59:22.148Z,11.68
2022-08-25T09:02:01.854Z,11.55
2022-08-25T09:04:44.254Z,12.13
2022-08-25T09:07:14.800Z,12.38
2022-08-25T09:09:43.504Z,11.32
2022-08-25T09:12:13.484Z,10.18
2022-08-25T09:15:12.873Z,10.45
2022-08-25T09:17:54.865Z,9.57
2022-08-25T09:20:50.646Z,9.57
2022-08-25T09:23:36.238Z,9.30
2022-08-25T09:26:08.958Z,9.32
2022-08-25T09:28:41.832Z,10.02
2022-08-25T09:31:26.454Z,10.20
2022-08-25T09:33:57.497Z,9.98
2022-08-25T09:36:24.735Z,10.05
2022-08-25T09:38:51.743Z,12.40
2022-08-25T09:41:45.074Z,12.27
2022-08-25T09:44:26.033Z,11.38
2022-08-25T09:47:28.026Z,11.52
2022-08-25T09:50:01.817Z,11.40
2022-08-25T09:52:37.812Z,12.25
2022-08-25T09:55:16.467Z,11.48
2022-08-25T09:57:43.006Z,10.35
2022-08-25T10:00:13.742Z,10.15
2022-08-25T10:02:41.669Z,10.30
2022-08-25T10:05:28.271Z,9.43
2022-08-25T10:07:58.449Z,8.75
2022-08-25T10:10:32.467Z,9.82
2022-08-25T10:13:01.177Z,9.30
2022-08-25T10:15:35.316Z,9.82
2022-08-25T10:18:20.718Z,10.77
2022-08-25T10:21:11.925Z,10.55
2022-08-25T10:23:51.647Z,10.23
2022-08-25T10:26:44.282Z,9.88
2022-08-25T10:29:23.725Z,10.05
2022-08-25T10:31:58.191Z,9.35
2022-08-25T10:34:40.047Z,10.18
2022-08-25T10:37:36.045Z,10.38
2022-08-25T10:40:24.241Z,9.60
2022-08-25T10:43:02.680Z,10.60
2022-08-25T10:45:45.756Z,9.45
2022-08-25T10:48:33.603Z,9.27
2022-08-25T10:51:21.524Z,9.27
2022-08-25T10:53:56.235Z,9.35
2022-08-25T10:56:27.922Z,9.82
2022-08-25T10:59:09.268Z,9.00
2022-08-25T11:01:56.486Z,9.23
2022-08-25T11:04:36.625Z,8.85
2022-08-25T11:07:13.380Z,8.93
2022-08-25T11:09:45.342Z,8.88
2022-08-25T11:12:16.247Z,8.38
2022-08-25T11:14:57.255Z,8.60
2022-08-25T11:17:32.958Z,8.70
2022-08-25T11:20:08.490Z,8.18
2022-08-25T11:22:43.046Z,8.55
2022-08-25T11:25:32.332Z,7.97
2022-08-25T11:28:13.150Z,7.68
2022-08-25T11:30:40.773Z,8.40
2022-08-25T11:33:07.627Z,8.15
2022-08-25T11:35:42.485Z,8.07
2022-08-25T11:38:12.401Z,7.88
2022-08-25T11:41:11.091Z,8.00
2022-08-25T11:44:02.176Z,7.90
2022-08-25T11:47:00.382Z,7.28
2022-08-25T11:49:42.102Z,7.57
2022-08-25T11:52:34.781Z,6.95
2022-08-25T11:55:13.655Z,7.15
2022-08-25T11:57:41.862Z,7.45
2022-08-25T12:00:15.001Z,7.65
2022-08-25T12:02:51.222Z,6.53
2022-08-25T12:05:24.206Z,7.20
2022-08-25T12:08:14.145Z,6.65
2022-08-25T12:10:52.620Z,6.90
2022-08-25T12:13:39.130Z,7.10
2022-08-25T12:16:06.370Z,6.55
2022-08-25T12:18:32.924Z,6.72
2022-08-25T12:21:00.919Z,6.35
2022-08-25T12:23:44.712Z,6.47
2022-08-25T12:26:19.066Z,6.18
2022-08-25T12:28:58.900Z,6.53
2022-08-25T12:31:30.484Z,6.07
2022-08-25T12:34:17.527Z,5.78
2022-08-25T12:36:59.791Z,6.13
2022-08-25T12:39:31.859Z,5.72
2022-08-25T12:44:49.483Z,5.55
2022-08-25T12:47:19.234Z,5.97
2022-08-25T12:49:50.809Z,5.50
2022-08-25T12:52:19.820Z,5.40
2022-08-25T12:54:56.284Z,5.40
2022-08-25T12:58:01.080Z,4.90
2022-08-25T13:00:37.863Z,4.38
2022-08-25T13:03:22.807Z,4.45
2022-08-25T13:06:11.515Z,4.28
2022-08-25T13:08:52.763Z,4.38
2022-08-25T13:11:48.996Z,4.38
2022-08-25T13:14:37.815Z,4.20
2022-08-25T13:17:05.640Z,3.95
2022-08-25T13:19:35.000Z,4.07
2022-08-25T13:22:15.579Z,4.00
2022-08-25T13:24:45.364Z,4.07
2022-08-25T13:27:27.542Z,4.25
2022-08-25T13:29:58.985Z,4.20
2022-08-25T13:32:36.885Z,4.72
2022-08-25T13:35:25.553Z,4.43
2022-08-25T13:37:54.726Z,4.43
2022-08-25T13:40:26.286Z,4.55
2022-08-25T13:43:01.119Z,4.57
2022-08-25T13:45:31.901Z,4.90
2022-08-25T13:47:58.863Z,4.93
2022-08-25T13:50:26.417Z,4.88
2022-08-25T13:52:59.085Z,4.88
2022-08-25T13:55:51.001Z,4.60
2022-08-25T13:58:39.018Z,4.80
2022-08-25T14:01:47.388Z,4.90
2022-08-25T14:04:50.775Z,4.72
2022-08-25T14:07:19.503Z,4.60
2022-08-25T14:09:57.631Z,4.47
2022-08-25T14:12:39.923Z,4.30
2022-08-25T14:15:20.041Z,4.30
2022-08-25T14:17:59.087Z,4.60
2022-08-25T14:20:29.151Z,4.28
2022-08-25T14:22:58.705Z,4.47
2022-08-25T14:25:27.649Z,4.20
2022-08-25T14:28:07.758Z,3.90
2022-08-25T14:30:37.203Z,3.70
2022-08-25T14:33:04.474Z,3.90
2022-08-25T14:35:31.692Z,3.83
2022-08-25T14:37:58.353Z,4.00
2022-08-25T14:40:25.115Z,4.47
2022-08-25T14:42:51.784Z,4.45
2022-08-25T14:45:19.202Z,4.72
2022-08-25T14:47:49.885Z,4.47
2022-08-25T14:50:20.057Z,4.60
2022-08-25T14:52:48.356Z,4.32
2022-08-25T14:55:31.148Z,4.38
2022-08-25T14:57:59.229Z,4.65
2022-08-25T15:00:26.341Z,4.63
2022-08-25T15:02:53.210Z,4.40
2022-08-25T15:05:27.021Z,4.05
2022-08-25T15:08:21.963Z,4.00
2022-08-25T15:10:48.585Z,4.18
2022-08-25T15:13:15.175Z,3.85
2022-08-25T15:15:52.342Z,4.05
2022-08-25T15:18:20.680Z,3.72
2022-08-25T15:20:47.478Z,5.97
2022-08-25T15:23:18.443Z,4.15
2022-08-25T15:25:46.748Z,6.30
2022-08-25T15:28:17.208Z,4.80
2022-08-25T15:30:45.972Z,4.38
2022-08-25T15:33:13.775Z,4.10
2022-08-25T15:35:41.110Z,4.40
2022-08-25T15:38:08.312Z,4.15
2022-08-25T15:40:37.527Z,4.32
2022-08-25T15:43:05.269Z,4.38
2022-08-25T15:45:32.151Z,4.30
2022-08-25T15:47:59.598Z,4.10
2022-08-25T15:50:26.909Z,3.90
2022-08-25T15:52:53.702Z,4.22
2022-08-25T15:55:20.983Z,4.00
2022-08-25T15:57:49.517Z,3.83
2022-08-25T16:00:17.667Z,3.88
2022-08-25T16:02:45.416Z,3.60
2022-08-25T16:05:13.682Z,3.95
2022-08-25T16:07:42.834Z,3.58
2022-08-25T16:10:10.391Z,3.80
2022-08-25T16:12:38.033Z,3.90
2022-08-25T16:15:05.729Z,4.50
2022-08-25T16:17:32.388Z,4.13
2022-08-25T16:19:59.086Z,4.10
2022-08-25T16:22:26.034Z,3.40
2022-08-25T16:24:52.665Z,3.88
2022-08-25T16:27:19.905Z,3.50
2022-08-25T16:29:47.235Z,3.40
2022-08-25T16:32:15.320Z,3.80
2022-08-25T16:34:44.366Z,3.58
2022-08-25T16:37:11.537Z,3.53
2022-08-25T16:39:41.370Z,3.88
2022-08-25T16:42:08.011Z,3.80
2022-08-25T16:44:35.208Z,3.72
2022-08-25T16:47:02.339Z,4.03
2022-08-25T16:49:29.014Z,4.10
2022-08-25T16:51:57.196Z,3.90
2022-08-25T16:54:43.943Z,3.97
2022-08-25T16:57:11.127Z,3.92
2022-08-25T16:59:37.704Z,4.00
2022-08-25T17:02:06.329Z,4.18
2022-08-25T17:04:33.017Z,4.10
2022-08-25T17:06:59.807Z,4.30
2022-08-25T17:09:26.481Z,4.15
2022-08-25T17:11:56.769Z,4.30
2022-08-25T17:14:24.150Z,4.45
2022-08-25T17:16:54.487Z,4.28
2022-08-25T17:19:21.255Z,4.35
2022-08-25T17:21:50.762Z,4.05
2022-08-25T17:24:17.780Z,4.20
2022-08-25T17:26:46.422Z,4.70
2022-08-25T17:29:13.033Z,4.40
2022-08-25T17:31:40.143Z,4.53
2022-08-25T17:34:12.140Z,4.95
2022-08-25T17:36:42.983Z,4.70
2022-08-25T17:39:11.985Z,4.45
2022-08-25T17:41:39.001Z,4.38
2022-08-25T17:44:08.445Z,4.18
2022-08-25T17:46:36.502Z,4.68
2022-08-25T17:49:04.026Z,4.45
2022-08-25T17:51:31.865Z,4.35
2022-08-25T17:53:59.184Z,4.60
2022-08-25T17:56:27.230Z,4.65
2022-08-25T17:58:55.391Z,4.55
2022-08-25T18:01:30.515Z,4.45
2022-08-25T18:03:58.870Z,4.60
2022-08-25T18:06:29.389Z,4.63
2022-08-25T18:09:00.019Z,4.72
2022-08-25T18:11:28.540Z,4.60
2022-08-25T18:13:55.785Z,5.00
2022-08-25T18:16:23.465Z,5.10
2022-08-25T18:18:50.159Z,5.00
2022-08-25T18:21:20.357Z,5.30
2022-08-25T18:23:47.762Z,4.78
2022-08-25T18:26:15.509Z,4.80
2022-08-25T18:28:44.012Z,4.95
2022-08-25T18:31:12.218Z,4.70
2022-08-25T18:33:42.135Z,4.75
2022-08-25T18:36:09.814Z,4.38
2022-08-25T18:38:57.907Z,4.90
2022-08-25T18:41:26.494Z,4.88
2022-08-25T18:43:53.331Z,5.00
2022-08-25T18:46:22.683Z,4.57
2022-08-25T18:48:52.569Z,4.82
2022-08-25T18:51:23.075Z,4.68
2022-08-25T18:53:51.119Z,4.78
2022-08-25T18:56:19.178Z,5.15
2022-08-25T18:58:47.439Z,5.25
2022-08-25T19:01:15.698Z,5.10
2022-08-25T19:03:43.115Z,5.35
2022-08-25T19:06:10.687Z,4.80
2022-08-25T19:08:40.056Z,4.97
2022-08-25T19:11:10.018Z,4.72
2022-08-25T19:13:37.463Z,5.13
2022-08-25T19:16:32.165Z,4.82
2022-08-25T19:19:00.927Z,4.63
2022-08-25T19:21:30.250Z,5.03
2022-08-25T19:23:56.918Z,5.07
2022-08-25T19:26:23.674Z,4.90
2022-08-25T19:28:52.781Z,5.10
2022-08-25T19:31:24.235Z,5.25
2022-08-25T19:33:52.913Z,4.97
2022-08-25T19:36:23.413Z,5.07
2022-08-25T19:38:58.524Z,4.38
2022-08-25T19:41:26.175Z,4.80
2022-08-25T19:43:56.425Z,5.43
2022-08-25T19:46:33.131Z,5.05
2022-08-25T19:49:09.141Z,5.05
2022-08-25T19:51:41.285Z,4.97
2022-08-25T19:54:16.081Z,4.70
2022-08-25T19:56:55.054Z,5.32
2022-08-25T19:59:40.699Z,5.20
2022-08-25T20:02:21.859Z,5.18
2022-08-25T20:04:50.336Z,5.70
2022-08-25T20:07:18.983Z,5.05
2022-08-25T20:09:45.927Z,5.30
2022-08-25T20:12:12.937Z,5.03
2022-08-25T20:14:39.795Z,5.13
2022-08-25T20:17:14.374Z,5.10
2022-08-25T20:19:52.499Z,5.50
2022-08-25T20:22:22.500Z,4.93
2022-08-25T20:24:56.063Z,5.53
2022-08-25T20:27:31.037Z,5.80
2022-08-25T20:29:58.391Z,5.57
2022-08-25T20:32:25.176Z,5.50
2022-08-25T20:34:53.914Z,5.38
2022-08-25T20:37:22.491Z,5.32
2022-08-25T20:39:49.216Z,5.27
2022-08-25T20:42:16.350Z,5.60
2022-08-25T20:44:43.028Z,5.38
2022-08-25T20:47:10.735Z,5.30
2022-08-25T20:49:39.567Z,5.18
2022-08-25T20:52:07.826Z,5.30
2022-08-25T20:54:34.680Z,5.63
2022-08-25T20:57:02.592Z,6.07
2022-08-25T20:59:29.432Z,5.35
2022-08-25T21:01:56.322Z,5.28
2022-08-25T21:04:25.961Z,6.22
2022-08-25T21:06:53.016Z,6.10
2022-08-25T21:09:22.804Z,5.73
2022-08-25T21:11:53.237Z,5.70
2022-08-25T21:14:21.157Z,5.90
2022-08-25T21:16:48.244Z,6.07
2022-08-25T21:19:26.638Z,5.93
2022-08-25T21:21:59.932Z,6.07
2022-08-25T21:24:27.494Z,5.47
2022-08-25T21:26:55.894Z,6.10
2022-08-25T21:29:24.426Z,6.33
2022-08-25T21:31:51.118Z,6.15
2022-08-25T21:34:18.819Z,5.87
2022-08-25T21:36:45.991Z,6.10
2022-08-25T21:39:14.419Z,6.00
2022-08-25T21:41:42.778Z,6.53
2022-08-25T21:44:10.406Z,6.10
2022-08-25T21:46:37.460Z,6.43
2022-08-25T21:49:06.707Z,6.57
2022-08-25T21:51:40.978Z,6.37
2022-08-25T21:54:12.950Z,7.10
2022-08-25T21:56:52.310Z,6.70
2022-08-25T21:59:24.115Z,7.07
2022-08-25T22:01:54.773Z,6.30
2022-08-25T22:04:22.857Z,7.30
2022-08-25T22:06:50.276Z,7.93
2022-08-25T22:09:17.357Z,7.57
2022-08-25T22:11:46.189Z,7.60
2022-08-25T22:14:14.500Z,7.90
2022-08-25T22:16:42.580Z,7.97
2022-08-25T22:19:12.444Z,7.73
2022-08-25T22:21:40.547Z,8.20
2022-08-25T22:24:07.294Z,8.30
2022-08-25T22:26:34.143Z,7.57
2022-08-25T22:29:01.623Z,8.30
2022-08-25T22:31:28.649Z,7.93
2022-08-25T22:33:57.716Z,8.60
2022-08-25T22:36:35.938Z,8.27
2022-08-25T22:39:05.094Z,7.57
2022-08-25T22:41:32.221Z,8.70
2022-08-25T22:43:59.940Z,8.33
2022-08-25T22:46:28.285Z,8.10
2022-08-25T22:48:56.608Z,8.07
2022-08-25T22:51:26.898Z,7.57
2022-08-25T22:53:54.705Z,8.00
2022-08-25T22:56:30.954Z,7.60
2022-08-25T22:59:00.499Z,7.87
2022-08-25T23:01:27.770Z,8.17
2022-08-25T23:03:54.753Z,8.43
2022-08-25T23:06:24.890Z,8.00
2022-08-25T23:08:53.669Z,8.40
2022-08-25T23:11:21.471Z,8.47
2022-08-25T23:13:48.113Z,8.63
2022-08-25T23:16:15.640Z,7.87
2022-08-25T23:18:43.908Z,8.13
2022-08-25T23:21:38.231Z,8.40
2022-08-25T23:24:09.075Z,8.50
2022-08-25T23:26:38.189Z,8.90
2022-08-25T23:29:17.760Z,9.27
2022-08-25T23:31:46.611Z,8.43
2022-08-25T23:34:13.713Z,8.37
2022-08-25T23:36:40.757Z,9.17
2022-08-25T23:39:09.015Z,9.23
2022-08-25T23:41:36.874Z,10.07
2022-08-25T23:44:05.546Z,9.63
2022-08-25T23:46:34.972Z,9.20
2022-08-25T23:49:03.956Z,9.67
2022-08-25T23:51:37.198Z,10.00
2022-08-25T23:54:09.220Z,9.40
2022-08-25T23:56:42.247Z,9.97
2022-08-25T23:59:11.298Z,9.23
